createdAt,value
2022-09-27T00:01:17.548Z,-77
2022-09-27T00:03:45.927Z,-77
2022-09-27T00:06:29.964Z,-77
2022-09-27T00:08:59.091Z,-77
2022-09-27T00:11:33.981Z,-77
2022-09-27T00:14:03.337Z,-77
2022-09-27T00:16:35.925Z,-77
2022-09-27T00:19:12.229Z,-77
2022-09-27T00:21:40.726Z,-77
2022-09-27T00:24:08.823Z,-77
2022-09-27T00:26:36.969Z,-77
2022-09-27T00:29:05.081Z,-77
2022-09-27T00:31:34.163Z,-77
2022-09-27T00:34:03.994Z,-77
2022-09-27T00:36:33.555Z,-77
2022-09-27T00:39:02.798Z,-77
2022-09-27T00:41:35.044Z,-77
2022-09-27T00:44:27.197Z,-77
2022-09-27T00:47:08.642Z,-77
2022-09-27T00:49:39.934Z,-77
2022-09-27T00:52:18.857Z,-77
2022-09-27T00:54:52.639Z,-77
2022-09-27T00:57:23.449Z,-77
2022-09-27T01:00:17.803Z,-77
2022-09-27T01:02:50.989Z,-77
2022-09-27T01:05:21.503Z,-77
2022-09-27T01:07:49.533Z,-77
2022-09-27T01:10:19.642Z,-77
2022-09-27T01:13:16.073Z,-77
2022-09-27T01:16:05.933Z,-77
2022-09-27T01:19:15.381Z,-76
2022-09-27T01:21:51.918Z,-77
2022-09-27T01:24:52.536Z,-77
2022-09-27T01:27:57.031Z,-77
2022-09-27T01:30:43.138Z,-76
2022-09-27T01:33:43.292Z,-75
2022-09-27T01:36:28.859Z,-76
2022-09-27T01:39:14.291Z,-76
2022-09-27T01:42:24.292Z,-76
2022-09-27T01:45:07.305Z,-76
2022-09-27T01:47:45.411Z,-77
2022-09-27T01:50:43.826Z,-77
2022-09-27T01:53:48.150Z,-76
2022-09-27T01:56:31.474Z,-76
2022-09-27T01:59:10.672Z,-76
2022-09-27T02:01:43.135Z,-77
2022-09-27T02:04:16.983Z,-76
2022-09-27T02:06:50.364Z,-76
2022-09-27T02:09:47.942Z,-76
2022-09-27T02:12:22.288Z,-76
2022-09-27T02:15:08.257Z,-76
2022-09-27T02:17:59.399Z,-76
2022-09-27T02:20:46.956Z,-76
2022-09-27T02:23:33.880Z,-76
2022-09-27T02:26:18.729Z,-77
2022-09-27T02:29:17.594Z,-76
2022-09-27T02:31:46.084Z,-76
2022-09-27T02:34:24.794Z,-76
2022-09-27T02:36:53.521Z,-77
2022-09-27T02:39:22.713Z,-76
2022-09-27T02:41:50.833Z,-76
2022-09-27T02:44:21.226Z,-76
2022-09-27T02:47:06.447Z,-76
2022-09-27T02:49:56.939Z,-76
2022-09-27T02:53:08.083Z,-76
2022-09-27T02:55:56.450Z,-76
2022-09-27T02:58:34.261Z,-76
2022-09-27T03:01:25.078Z,-76
2022-09-27T03:04:16.282Z,-76
2022-09-27T03:06:47.777Z,-76
2022-09-27T03:09:30.903Z,-76
2022-09-27T03:11:58.940Z,-76
2022-09-27T03:14:26.963Z,-75
2022-09-27T03:16:55.113Z,-76
2022-09-27T03:19:23.292Z,-77
2022-09-27T03:21:51.493Z,-76
2022-09-27T03:24:19.541Z,-76
2022-09-27T03:26:47.604Z,-76
2022-09-27T03:29:17.026Z,-76
2022-09-27T03:31:45.454Z,-76
2022-09-27T03:34:13.786Z,-76
2022-09-27T03:36:42.040Z,-76
2022-09-27T03:39:10.157Z,-76
2022-09-27T03:41:39.200Z,-76
2022-09-27T03:44:08.361Z,-76
2022-09-27T03:46:36.579Z,-76
2022-09-27T03:49:04.673Z,-76
2022-09-27T03:51:33.088Z,-76
2022-09-27T03:54:01.220Z,-76
2022-09-27T03:56:30.218Z,-76
2022-09-27T03:58:58.256Z,-76
2022-09-27T04:01:27.127Z,-76
2022-09-27T04:03:55.523Z,-76
2022-09-27T04:06:24.027Z,-76
2022-09-27T04:08:52.422Z,-76
2022-09-27T04:11:23.282Z,-76
2022-09-27T04:13:51.375Z,-76
2022-09-27T04:16:19.441Z,-76
2022-09-27T04:18:47.840Z,-76
2022-09-27T04:21:16.433Z,-76
2022-09-27T04:23:44.843Z,-76
2022-09-27T04:26:13.814Z,-76
2022-09-27T04:28:41.944Z,-75
2022-09-27T04:31:10.117Z,-76
2022-09-27T04:33:38.588Z,-76
2022-09-27T04:36:24.674Z,-76
2022-09-27T04:38:54.083Z,-76
2022-09-27T04:41:24.149Z,-76
2022-09-27T04:43:58.754Z,-76
2022-09-27T04:46:31.806Z,-76
2022-09-27T04:49:03.238Z,-75
2022-09-27T04:51:31.743Z,-75
2022-09-27T04:54:00.223Z,-76
2022-09-27T04:56:28.332Z,-76
2022-09-27T04:58:56.384Z,-76
2022-09-27T05:01:24.565Z,-75
2022-09-27T05:03:53.022Z,-76
2022-09-27T05:06:21.163Z,-76
2022-09-27T05:08:49.235Z,-76
2022-09-27T05:11:17.282Z,-76
2022-09-27T05:13:45.321Z,-76
2022-09-27T05:16:13.819Z,-75
2022-09-27T05:18:42.432Z,-75
2022-09-27T05:21:10.567Z,-76
2022-09-27T05:23:38.597Z,-76
2022-09-27T05:26:07.980Z,-76
2022-09-27T05:28:36.247Z,-75
2022-09-27T05:31:04.822Z,-76
2022-09-27T05:33:34.444Z,-75
2022-09-27T05:36:04.570Z,-76
2022-09-27T05:38:33.019Z,-76
2022-09-27T05:41:01.126Z,-75
2022-09-27T05:43:29.844Z,-76
2022-09-27T05:45:58.889Z,-72
2022-09-27T05:48:30.335Z,-72
2022-09-27T05:50:58.981Z,-72
2022-09-27T05:53:27.457Z,-72
2022-09-27T05:55:55.611Z,-72
2022-09-27T05:58:24.137Z,-72
2022-09-27T06:00:52.555Z,-72
2022-09-27T06:03:21.484Z,-72
2022-09-27T06:05:51.432Z,-72
2022-09-27T06:08:21.193Z,-72
2022-09-27T06:10:49.212Z,-72
2022-09-27T06:13:18.007Z,-71
2022-09-27T06:15:47.615Z,-72
2022-09-27T06:18:18.189Z,-72
2022-09-27T06:20:46.807Z,-72
2022-09-27T06:23:19.073Z,-72
2022-09-27T06:25:48.010Z,-72
2022-09-27T06:28:16.560Z,-72
2022-09-27T06:30:52.330Z,-72
2022-09-27T06:33:21.773Z,-72
2022-09-27T06:35:50.733Z,-72
2022-09-27T06:38:21.350Z,-72
2022-09-27T06:40:50.218Z,-72
2022-09-27T06:43:21.598Z,-72
2022-09-27T06:45:50.584Z,-72
2022-09-27T06:48:19.096Z,-72
2022-09-27T06:50:49.271Z,-72
2022-09-27T06:53:18.914Z,-72
2022-09-27T06:55:47.437Z,-72
2022-09-27T06:58:32.717Z,-72
2022-09-27T07:01:01.599Z,-73
2022-09-27T07:03:38.930Z,-71
2022-09-27T07:06:18.594Z,-72
2022-09-27T07:08:50.534Z,-72
2022-09-27T07:11:18.591Z,-72
2022-09-27T07:13:46.668Z,-73
2022-09-27T07:16:16.064Z,-72
2022-09-27T07:18:44.546Z,-72
2022-09-27T07:21:13.711Z,-73
2022-09-27T07:23:42.362Z,-72
2022-09-27T07:26:12.747Z,-72
2022-09-27T07:28:42.360Z,-73
2022-09-27T07:31:11.356Z,-72
2022-09-27T07:33:43.173Z,-72
2022-09-27T07:36:13.581Z,-73
2022-09-27T07:38:41.630Z,-72
2022-09-27T07:41:15.142Z,-72
2022-09-27T07:43:45.075Z,-72
2022-09-27T07:46:14.500Z,-72
2022-09-27T07:48:42.671Z,-72
2022-09-27T07:51:12.030Z,-72
2022-09-27T07:53:40.845Z,-72
2022-09-27T07:56:09.738Z,-72
2022-09-27T07:58:38.192Z,-72
2022-09-27T08:01:07.323Z,-72
2022-09-27T08:03:36.291Z,-72
2022-09-27T08:06:05.340Z,-72
2022-09-27T08:08:33.818Z,-72
2022-09-27T08:11:02.465Z,-72
2022-09-27T08:13:31.020Z,-72
2022-09-27T08:16:03.453Z,-72
2022-09-27T08:18:31.942Z,-73
2022-09-27T08:21:01.613Z,-72
2022-09-27T08:23:30.680Z,-72
2022-09-27T08:25:59.783Z,-72
2022-09-27T08:28:28.875Z,-72
2022-09-27T08:31:00.110Z,-73
2022-09-27T08:33:32.329Z,-73
2022-09-27T08:36:03.553Z,-73
2022-09-27T08:38:32.029Z,-72
2022-09-27T08:41:34.445Z,-72
2022-09-27T08:44:39.563Z,-72
2022-09-27T08:47:27.446Z,-72
2022-09-27T08:50:11.945Z,-72
2022-09-27T08:53:08.923Z,-72
2022-09-27T08:55:48.148Z,-72
2022-09-27T08:58:29.450Z,-72
2022-09-27T09:01:02.479Z,-72
2022-09-27T09:03:39.580Z,-72
2022-09-27T09:06:30.346Z,-72
2022-09-27T09:09:06.667Z,-72
2022-09-27T09:12:14.745Z,-72
2022-09-27T09:15:21.044Z,-72
2022-09-27T09:18:16.933Z,-72
2022-09-27T09:20:45.301Z,-72
2022-09-27T09:23:26.466Z,-72
2022-09-27T09:26:15.797Z,-72
2022-09-27T09:29:01.693Z,-72
2022-09-27T09:32:13.517Z,-72
2022-09-27T09:34:50.786Z,-73
2022-09-27T09:37:39.738Z,-73
2022-09-27T09:40:15.271Z,-72
2022-09-27T09:43:04.667Z,-73
2022-09-27T09:45:38.295Z,-72
2022-09-27T09:48:18.260Z,-72
2022-09-27T09:50:51.256Z,-72
2022-09-27T09:53:24.181Z,-73
2022-09-27T09:56:06.786Z,-72
2022-09-27T09:59:01.372Z,-72
2022-09-27T10:01:31.719Z,-72
2022-09-27T10:03:59.767Z,-72
2022-09-27T10:06:30.048Z,-72
2022-09-27T10:08:58.556Z,-72
2022-09-27T10:11:32.823Z,-73
2022-09-27T10:14:00.868Z,-72
2022-09-27T10:16:29.871Z,-72
2022-09-27T10:19:04.582Z,-72
2022-09-27T10:21:35.101Z,-73
2022-09-27T10:24:17.413Z,-72
2022-09-27T10:26:48.800Z,-72
2022-09-27T10:29:37.635Z,-72
2022-09-27T10:32:20.823Z,-72
2022-09-27T10:34:51.303Z,-72
2022-09-27T10:37:23.420Z,-72
2022-09-27T10:39:53.763Z,-72
2022-09-27T10:42:22.788Z,-72
2022-09-27T10:44:51.119Z,-73
2022-09-27T10:47:23.839Z,-73
2022-09-27T10:49:52.992Z,-73
2022-09-27T10:52:24.370Z,-72
2022-09-27T10:55:00.900Z,-72
2022-09-27T10:57:31.477Z,-72
2022-09-27T11:00:06.345Z,-72
2022-09-27T11:02:39.978Z,-73
2022-09-27T11:05:34.068Z,-73
2022-09-27T11:08:23.261Z,-73
2022-09-27T11:11:16.359Z,-73
2022-09-27T11:14:04.337Z,-72
2022-09-27T11:16:47.393Z,-73
2022-09-27T11:19:24.077Z,-72
2022-09-27T11:22:26.343Z,-73
2022-09-27T11:25:05.964Z,-72
2022-09-27T11:28:05.884Z,-72
2022-09-27T11:30:47.228Z,-73
2022-09-27T11:33:51.996Z,-72
2022-09-27T11:36:47.520Z,-72
2022-09-27T11:39:40.941Z,-73
2022-09-27T11:42:28.194Z,-72
2022-09-27T11:45:34.330Z,-72
2022-09-27T11:48:00.787Z,-70
2022-09-27T11:51:16.241Z,-68
2022-09-27T11:54:02.442Z,-68
2022-09-27T11:56:52.313Z,-69
2022-09-27T11:59:29.305Z,-68
2022-09-27T12:02:42.402Z,-69
2022-09-27T12:05:43.795Z,-68
2022-09-27T12:08:16.426Z,-69
2022-09-27T12:10:51.238Z,-68
2022-09-27T12:13:43.073Z,-68
2022-09-27T12:16:13.074Z,-68
2022-09-27T12:18:46.804Z,-69
2022-09-27T12:21:18.837Z,-69
2022-09-27T12:23:52.163Z,-69
2022-09-27T12:26:37.565Z,-69
2022-09-27T12:29:26.726Z,-69
2022-09-27T12:32:51.605Z,-69
2022-09-27T12:35:41.165Z,-69
2022-09-27T12:38:39.236Z,-69
2022-09-27T12:41:09.567Z,-69
2022-09-27T12:43:37.747Z,-69
2022-09-27T12:46:40.959Z,-69
2022-09-27T12:49:34.403Z,-69
2022-09-27T12:52:11.994Z,-68
2022-09-27T12:54:49.564Z,-69
2022-09-27T12:57:52.704Z,-69
2022-09-27T13:00:22.164Z,-69
2022-09-27T13:03:31.063Z,-69
2022-09-27T13:06:24.815Z,-68
2022-09-27T13:09:20.768Z,-69
2022-09-27T13:12:13.798Z,-68
2022-09-27T13:15:22.034Z,-69
2022-09-27T13:17:53.283Z,-69
2022-09-27T13:20:36.648Z,-69
2022-09-27T13:23:33.890Z,-69
2022-09-27T13:26:22.429Z,-69
2022-09-27T13:28:54.921Z,-69
2022-09-27T13:31:54.787Z,-69
2022-09-27T13:34:44.340Z,-69
2022-09-27T13:37:31.223Z,-69
2022-09-27T13:40:20.019Z,-69
2022-09-27T13:43:07.576Z,-69
2022-09-27T13:45:58.633Z,-69
2022-09-27T13:48:53.676Z,-69
2022-09-27T13:51:43.534Z,-69
2022-09-27T13:54:53.902Z,-69
2022-09-27T13:57:53.447Z,-69
2022-09-27T14:00:34.231Z,-68
2022-09-27T14:03:23.435Z,-68
2022-09-27T14:05:59.439Z,-68
2022-09-27T14:08:35.325Z,-68
2022-09-27T14:11:06.050Z,-69
2022-09-27T14:13:36.078Z,-68
2022-09-27T14:16:06.944Z,-68
2022-09-27T14:18:37.730Z,-68
2022-09-27T14:21:29.150Z,-69
2022-09-27T14:24:28.338Z,-68
2022-09-27T14:27:23.311Z,-69
2022-09-27T14:30:14.945Z,-69
2022-09-27T14:32:55.670Z,-69
2022-09-27T14:35:47.097Z,-69
2022-09-27T14:38:38.078Z,-68
2022-09-27T14:41:09.942Z,-68
2022-09-27T14:43:46.476Z,-69
2022-09-27T14:46:44.158Z,-69
2022-09-27T14:49:25.018Z,-69
2022-09-27T14:51:56.251Z,-69
2022-09-27T14:54:30.617Z,-69
2022-09-27T14:57:00.829Z,-69
2022-09-27T14:59:37.858Z,-69
2022-09-27T15:02:20.112Z,-69
2022-09-27T15:04:51.442Z,-69
2022-09-27T15:07:22.539Z,-69
2022-09-27T15:09:52.072Z,-69
2022-09-27T15:12:26.520Z,-68
2022-09-27T15:14:59.236Z,-69
2022-09-27T15:17:27.648Z,-69
2022-09-27T15:20:06.367Z,-69
2022-09-27T15:22:47.352Z,-69
2022-09-27T15:25:32.184Z,-69
2022-09-27T15:28:03.227Z,-69
2022-09-27T15:30:52.817Z,-69
2022-09-27T15:33:25.389Z,-69
2022-09-27T15:35:58.367Z,-69
2022-09-27T15:38:44.173Z,-69
2022-09-27T15:41:21.408Z,-69
2022-09-27T15:43:52.699Z,-69
2022-09-27T15:46:23.805Z,-69
2022-09-27T15:49:33.649Z,-69
2022-09-27T15:52:05.064Z,-68
2022-09-27T15:54:35.826Z,-68
2022-09-27T15:57:06.950Z,-69
2022-09-27T15:59:37.309Z,-69
2022-09-27T16:02:16.258Z,-69
2022-09-27T16:04:45.238Z,-69
2022-09-27T16:07:15.000Z,-69
2022-09-27T16:09:44.237Z,-69
2022-09-27T16:12:12.216Z,-69
2022-09-27T16:14:40.626Z,-69
2022-09-27T16:17:10.353Z,-69
2022-09-27T16:19:40.307Z,-69
2022-09-27T16:22:08.993Z,-69
2022-09-27T16:24:37.635Z,-69
2022-09-27T16:27:06.000Z,-69
2022-09-27T16:29:34.393Z,-69
2022-09-27T16:32:02.802Z,-69
2022-09-27T16:34:31.190Z,-69
2022-09-27T16:37:04.631Z,-69
2022-09-27T16:39:33.474Z,-69
2022-09-27T16:42:05.038Z,-69
2022-09-27T16:44:35.152Z,-70
2022-09-27T16:47:07.525Z,-69
2022-09-27T16:49:53.165Z,-69
2022-09-27T16:52:21.919Z,-69
2022-09-27T16:54:50.280Z,-69
2022-09-27T16:57:18.640Z,-69
2022-09-27T16:59:48.155Z,-69
2022-09-27T17:02:18.140Z,-69
2022-09-27T17:04:46.556Z,-69
2022-09-27T17:07:15.108Z,-69
2022-09-27T17:09:43.488Z,-69
2022-09-27T17:12:12.170Z,-69
2022-09-27T17:14:40.534Z,-69
2022-09-27T17:17:09.379Z,-69
2022-09-27T17:19:39.200Z,-69
2022-09-27T17:22:08.916Z,-69
2022-09-27T17:24:37.541Z,-69
2022-09-27T17:27:06.487Z,-69
2022-09-27T17:29:34.540Z,-69
2022-09-27T17:32:02.591Z,-69
2022-09-27T17:34:32.231Z,-69
2022-09-27T17:37:00.811Z,-69
2022-09-27T17:39:28.749Z,-69
2022-09-27T17:41:58.479Z,-69
2022-09-27T17:44:27.590Z,-69
2022-09-27T17:47:14.966Z,-84
2022-09-27T17:50:00.773Z,-84
2022-09-27T17:52:30.971Z,-85
2022-09-27T17:54:59.343Z,-84
2022-09-27T17:57:27.922Z,-85
2022-09-27T17:59:58.253Z,-84
2022-09-27T18:02:27.283Z,-84
2022-09-27T18:04:55.791Z,-85
2022-09-27T18:07:24.081Z,-84
2022-09-27T18:09:54.918Z,-84
2022-09-27T18:12:25.460Z,-84
2022-09-27T18:15:01.363Z,-85
2022-09-27T18:17:30.311Z,-84
2022-09-27T18:20:00.444Z,-84
2022-09-27T18:22:31.145Z,-85
2022-09-27T18:25:06.895Z,-84
2022-09-27T18:27:36.578Z,-84
2022-09-27T18:30:06.269Z,-84
2022-09-27T18:32:34.649Z,-85
2022-09-27T18:35:03.063Z,-86
2022-09-27T18:37:31.848Z,-85
2022-09-27T18:40:00.225Z,-84
2022-09-27T18:42:31.252Z,-85
2022-09-27T18:44:59.585Z,-85
2022-09-27T18:47:27.997Z,-85
2022-09-27T18:49:56.401Z,-85
2022-09-27T18:52:24.829Z,-85
2022-09-27T18:54:53.356Z,-85
2022-09-27T18:57:22.422Z,-84
2022-09-27T18:59:50.820Z,-84
2022-09-27T19:02:19.319Z,-85
2022-09-27T19:04:47.802Z,-85
2022-09-27T19:07:16.194Z,-85
2022-09-27T19:09:54.535Z,-85
2022-09-27T19:12:23.023Z,-85
2022-09-27T19:14:52.946Z,-85
2022-09-27T19:17:21.285Z,-85
2022-09-27T19:19:50.831Z,-85
2022-09-27T19:22:20.943Z,-84
2022-09-27T19:24:49.299Z,-85
2022-09-27T19:27:17.783Z,-85
2022-09-27T19:29:46.369Z,-85
2022-09-27T19:32:15.009Z,-85
2022-09-27T19:34:43.644Z,-84
2022-09-27T19:37:12.320Z,-85
2022-09-27T19:39:40.870Z,-85
2022-09-27T19:42:16.751Z,-85
2022-09-27T19:44:46.686Z,-84
2022-09-27T19:47:15.293Z,-85
2022-09-27T19:49:43.606Z,-85
2022-09-27T19:52:20.360Z,-85
2022-09-27T19:54:48.804Z,-85
2022-09-27T19:57:18.229Z,-85
2022-09-27T19:59:46.615Z,-85
2022-09-27T20:02:15.120Z,-85
2022-09-27T20:04:43.674Z,-85
2022-09-27T20:07:13.617Z,-85
2022-09-27T20:09:42.240Z,-84
2022-09-27T20:12:10.719Z,-85
2022-09-27T20:14:44.133Z,-86
2022-09-27T20:17:13.572Z,-85
2022-09-27T20:19:41.855Z,-84
2022-09-27T20:22:12.746Z,-84
2022-09-27T20:24:41.159Z,-84
2022-09-27T20:27:09.491Z,-84
2022-09-27T20:29:37.839Z,-84
2022-09-27T20:32:27.231Z,-85
2022-09-27T20:34:56.331Z,-85
2022-09-27T20:37:24.653Z,-84
2022-09-27T20:39:54.198Z,-82
2022-09-27T20:42:22.513Z,-85
2022-09-27T20:44:54.292Z,-85
2022-09-27T20:47:23.159Z,-84
2022-09-27T20:49:51.746Z,-84
2022-09-27T20:52:20.618Z,-85
2022-09-27T20:54:55.528Z,-85
2022-09-27T20:57:46.238Z,-84
2022-09-27T21:00:14.329Z,-84
2022-09-27T21:02:45.326Z,-84
2022-09-27T21:05:14.612Z,-84
2022-09-27T21:07:43.309Z,-83
2022-09-27T21:10:11.776Z,-84
2022-09-27T21:12:40.149Z,-84
2022-09-27T21:15:08.959Z,-84
2022-09-27T21:17:44.524Z,-84
2022-09-27T21:20:12.834Z,-84
2022-09-27T21:22:41.207Z,-85
2022-09-27T21:25:12.642Z,-84
2022-09-27T21:27:40.981Z,-84
2022-09-27T21:30:15.338Z,-85
2022-09-27T21:32:44.207Z,-84
2022-09-27T21:35:12.504Z,-83
2022-09-27T21:37:40.417Z,-84
2022-09-27T21:40:18.163Z,-84
2022-09-27T21:42:56.950Z,-84
2022-09-27T21:45:25.685Z,-84
2022-09-27T21:47:55.248Z,-85
2022-09-27T21:50:23.435Z,-85
2022-09-27T21:52:57.390Z,-84
2022-09-27T21:55:39.894Z,-84
2022-09-27T21:58:08.329Z,-83
2022-09-27T22:00:36.769Z,-84
2022-09-27T22:03:05.910Z,-84
2022-09-27T22:05:34.507Z,-84
2022-09-27T22:08:03.005Z,-84
2022-09-27T22:10:31.334Z,-84
2022-09-27T22:12:59.623Z,-84
2022-09-27T22:15:27.674Z,-84
2022-09-27T22:17:56.012Z,-85
2022-09-27T22:20:24.388Z,-85
2022-09-27T22:22:56.716Z,-85
2022-09-27T22:25:34.059Z,-84
2022-09-27T22:28:02.741Z,-84
2022-09-27T22:30:31.826Z,-84
2022-09-27T22:33:00.155Z,-84
2022-09-27T22:35:30.915Z,-84
2022-09-27T22:38:00.041Z,-85
2022-09-27T22:40:28.604Z,-84
2022-09-27T22:42:57.100Z,-85
2022-09-27T22:45:26.282Z,-84
2022-09-27T22:47:54.650Z,-85
2022-09-27T22:50:23.121Z,-86
2022-09-27T22:52:51.487Z,-84
2022-09-27T22:55:19.841Z,-84
2022-09-27T22:57:48.329Z,-85
2022-09-27T23:00:16.701Z,-85
2022-09-27T23:02:45.043Z,-85
2022-09-27T23:05:13.454Z,-84
2022-09-27T23:07:41.864Z,-85
2022-09-27T23:10:10.596Z,-84
2022-09-27T23:12:38.913Z,-84
2022-09-27T23:15:09.310Z,-84
2022-09-27T23:17:38.029Z,-84
2022-09-27T23:20:06.769Z,-84
2022-09-27T23:22:35.100Z,-85
2022-09-27T23:25:03.678Z,-84
2022-09-27T23:27:44.985Z,-84
2022-09-27T23:30:18.904Z,-85
2022-09-27T23:32:53.504Z,-85
2022-09-27T23:35:22.031Z,-85
2022-09-27T23:37:53.017Z,-85
2022-09-27T23:40:21.531Z,-85
2022-09-27T23:42:50.186Z,-85
2022-09-27T23:45:18.476Z,-85
2022-09-27T23:47:46.402Z,-88
2022-09-27T23:50:14.988Z,-88
2022-09-27T23:52:43.332Z,-88
2022-09-27T23:55:14.728Z,-87
2022-09-27T23:57:43.067Z,-87
